< < Back
Terminal Aerodrome Forecast


Current Version              Previous Versions:   1  2  3  4  5  6  7  8  9  

Terminal Aerodrome Forecast

942
FTUS44 KOHX 220500
TAFBNA
TAF
KBNA 220520Z 2206/2306 35006KT P6SM SKC
     FM221400 01010G18KT P6SM FEW040
     FM230100 03005KT P6SM SKC=

Latest METAR

629
SAUS70 KWBC 222200 RRG
MTRBNA
METAR KBNA 222153Z 01010G18KT 10SM CLR 23/07 A3017 RMK AO2 SLP211
T02330067


USA.gov is the U.S. government's official web portal to all federal, state and local government web resources and services.